• Join FlightAware (Why Join?)
  • Login
  • US Flag 
05:02AM EST


 

Airport Tracker/Info


-or-


 

Live Flight TrackerFlight Track Log ✈ TAM9376 ✈ 01-May-2013 ✈ KMIA - SBEG / MAO

Flight Track Log - Related Links

Times and Time Zones

All times are in EDT time to prevent confusion due to time zone crossing. See the TAM9376 flight status page for this flight to view local times or setup timezone preferences in your user account.

Time Position Orientation Groundspeed Altitude Reporting Facility
EDT Latitude Longitude Course Direction KTS MPH feet Rate Location/Type
09:46PM 25.8020 -80.2650 90° East 173 199 800  Level FlightAware
09:46PM 25.8030 -80.2510 85° East 169 194 1,600 2,640 Climbing FlightAware
09:47PM 25.8050 -80.2260 85° East 175 201 2,800 2,040 Climbing FlightAware
09:47PM 25.8080 -80.2020 82° East 204 235 3,500 1,500 Climbing FlightAware
09:47PM 25.8090 -80.1840 86° East 233 268 3,800 1,980 Climbing FlightAware
09:48PM 25.8130 -80.1450 83° East 257 296 5,000 2,400 Climbing FlightAware
09:48PM 25.8170 -80.1130 82° East 275 316 6,000 2,700 Climbing FlightAware
09:49PM 25.8210 -80.0690 84° East 292 336 7,500 2,940 Climbing FlightAware
09:49PM 25.8260 -80.0300 82° East 302 348 8,700 2,820 Climbing FlightAware
09:49PM 25.8280 -80.0080 84° East 309 356 9,400 2,580 Climbing FlightAware
09:50PM 25.8340 -79.9440 84° East 328 377 11,100 2,700 Climbing FlightAware
09:51PM 25.8420 -79.8640 84° East 347 399 13,300 2,640 Climbing FlightAware
09:52PM 25.8490 -79.7930 84° East 366 421 14,900 2,400 Climbing FlightAware
09:52PM 25.8560 -79.7040 85° East 386 444 16,700 1,680 Climbing FlightAware
09:53PM 25.8620 -79.6230 85° East 430 495 17,300 1,380 Climbing FlightAware
09:54PM 25.8700 -79.5220 85° East 455 524 18,700 2,040 Climbing FlightAware
09:54PM 25.8760 -79.4270 86° East 470 541 20,200 2,100 Climbing FlightAware
09:55PM 25.8810 -79.3620 85° East 476 548 21,200 1,920 Climbing FlightAware
09:55PM 25.8750 -79.3030 96° East 480 552 22,000 2,040 Climbing FlightAware
09:56PM 25.8500 -79.1900 104° East 490 564 23,600 2,100 Climbing FlightAware
09:57PM 25.8280 -79.0920 104° East 495 570 25,000 1,980 Climbing FlightAware
09:57PM 25.7960 -78.9940 110° East 502 578 26,300 2,580 Climbing FlightAware
09:58PM 25.7570 -78.8880 112° Southeast 475 547 28,700 3,780 Climbing FlightAware
09:59PM 25.7200 -78.8060 117° Southeast 425 489 31,700 2,760 Climbing FlightAware
09:59PM 25.6690 -78.7520 136° Southeast 421 484 32,200 480 Climbing FlightAware
10:00PM 25.5880 -78.6830 142° Southeast 450 518 32,400 180 Climbing FlightAware
10:01PM 25.5090 -78.6480 158° South 458 527 32,500 420 Climbing FlightAware
10:02PM 25.4120 -78.6270 169° South 464 534 33,000 300 Climbing FlightAware
10:02PM 25.3280 -78.6400 188° South 458 527 33,000  Level FlightAware
10:03PM 25.2390 -78.6550 189° South 459 528 33,000  Level FlightAware
10:04PM 25.1610 -78.6700 190° South 458 527 33,000  Level FlightAware
10:04PM 25.0700 -78.6960 195° South 457 526 33,000  Level FlightAware
10:05PM 24.9790 -78.7270 197° South 458 527 33,000  Level FlightAware
10:06PM 24.8980 -78.7560 198° South 456 525 33,000  Level FlightAware
10:07PM 24.8140 -78.7860 198° South 452 520 33,000  Level FlightAware
10:07PM 24.7560 -78.8060 197° South 444 511 33,000  Level FlightAware
10:08PM 24.6510 -78.8430 198° South 436 502 33,000  Level FlightAware
10:09PM 24.5770 -78.8690 198° South 442 509 33,000  Level FlightAware
10:09PM 24.4850 -78.9010 198° South 442 509 33,000  Level FlightAware
10:10PM 24.3920 -78.9330 197° South 437 503 33,000  Level FlightAware
10:11PM 24.3020 -78.9650 198° South 437 503 33,000  Level FlightAware
10:12PM 24.1930 -79.0030 198° South 440 506 33,000  Level FlightAware
10:13PM 24.1130 -79.0300 197° South 441 507 33,000  Level FlightAware
10:13PM 24.0060 -79.0540 192° South 466 536 33,000  Level FlightAware
10:14PM 23.9400 -79.0240 157° South 476 548 33,000  Level FlightAware
10:15PM 23.8640 -78.9720 148° Southeast 476 548 33,000  Level FlightAware
10:15PM 23.8000 -78.9290 148° Southeast 476 548 33,000  Level FlightAware
10:16PM 23.7370 -78.8850 147° Southeast 476 548 33,000  Level FlightAware
10:17PM 23.6730 -78.8420 148° Southeast 476 548 33,000  Level FlightAware
10:17PM 23.5940 -78.7880 148° Southeast 476 548 33,000  Level FlightAware
10:18PM 23.5300 -78.7450 148° Southeast 476 548 33,000  Level FlightAware
10:19PM 23.4670 -78.7010 147° Southeast 476 548 33,000  Level FlightAware
10:19PM 23.4030 -78.6580 148° Southeast 476 548 33,000  Level FlightAware
10:20PM 23.3240 -78.6040 148° Southeast 476 548 33,000  Level FlightAware
10:21PM 23.2600 -78.5610 148° Southeast 476 548 33,000  Level FlightAware
10:22PM 23.1970 -78.5180 148° Southeast 476 548 33,000  Level FlightAware
10:22PM 23.1330 -78.4750 148° Southeast 476 548 33,000  Level FlightAware
10:23PM 23.0700 -78.4310 147° Southeast 476 548 33,000  Level FlightAware
10:24PM 23.0060 -78.3880 148° Southeast 476 548 33,000  Level FlightAware
10:26PM 22.8313 -78.2005 135° Southeast  Level FlightAware Approximate
10:27PM 22.7385 -78.1011 135° Southeast  Level FlightAware Approximate
10:28PM 22.6456 -78.0019 135° Southeast  Level FlightAware Approximate
10:29PM 22.5483 -77.8985 141° Southeast  Level FlightAware Approximate
10:30PM 22.4475 -77.8089 141° Southeast  Level FlightAware Approximate
10:31PM 22.3443 -77.7227 144° Southeast  Level FlightAware Approximate
10:32PM 22.2389 -77.6397 144° Southeast  Level FlightAware Approximate
10:33PM 22.1334 -77.5568 144° Southeast  Level FlightAware Approximate
10:34PM 22.0279 -77.4741 144° Southeast  Level FlightAware Approximate
10:35PM 21.9224 -77.3913 144° Southeast  Level FlightAware Approximate
10:36PM 21.8172 -77.3083 144° Southeast  Level FlightAware Approximate
10:37PM 21.7119 -77.2253 144° Southeast  Level FlightAware Approximate
10:38PM 21.6066 -77.1425 144° Southeast  Level FlightAware Approximate
10:39PM 21.5013 -77.0598 144° Southeast  Level FlightAware Approximate
10:40PM 21.3959 -76.9772 144° Southeast  Level FlightAware Approximate
10:41PM 21.2905 -76.8947 144° Southeast  Level FlightAware Approximate
10:42PM 21.1850 -76.8124 144° Southeast  Level FlightAware Approximate
10:43PM 21.0795 -76.7301 144° Southeast  Level FlightAware Approximate
10:44PM 20.9740 -76.6480 144° Southeast  Level FlightAware Approximate
10:45PM 20.8684 -76.5660 144° Southeast  Level FlightAware Approximate
10:46PM 20.7628 -76.4841 144° Southeast  Level FlightAware Approximate
10:47PM 20.6571 -76.4024 144° Southeast  Level FlightAware Approximate
10:48PM 20.5514 -76.3207 144° Southeast  Level FlightAware Approximate
10:49PM 20.4457 -76.2392 144° Southeast  Level FlightAware Approximate
10:50PM 20.3399 -76.1577 144° Southeast  Level FlightAware Approximate
10:51PM 20.2341 -76.0764 144° Southeast  Level FlightAware Approximate
10:52PM 20.1283 -75.9952 144° Southeast  Level FlightAware Approximate
10:53PM 20.0224 -75.9141 144° Southeast  Level FlightAware Approximate
10:54PM 19.9165 -75.8331 144° Southeast  Level FlightAware Approximate
10:55PM 19.8105 -75.7522 144° Southeast  Level FlightAware Approximate
10:56PM 19.7045 -75.6715 144° Southeast  Level FlightAware Approximate
10:57PM 19.5985 -75.5908 144° Southeast  Level FlightAware Approximate
10:58PM 19.4924 -75.5102 144° Southeast  Level FlightAware Approximate
10:59PM 19.3863 -75.4298 144° Southeast  Level FlightAware Approximate
11:00PM 19.2802 -75.3494 144° Southeast  Level FlightAware Approximate
11:01PM 19.1740 -75.2692 144° Southeast  Level FlightAware Approximate
11:02PM 19.0678 -75.1890 144° Southeast  Level FlightAware Approximate
11:03PM 18.9616 -75.1090 145° Southeast  Level FlightAware Approximate
11:04PM 18.8553 -75.0291 145° Southeast  Level FlightAware Approximate
11:05PM 18.7490 -74.9492 145° Southeast  Level FlightAware Approximate
11:06PM 18.6427 -74.8695 145° Southeast  Level FlightAware Approximate
11:07PM 18.5365 -74.7896 144° Southeast  Level FlightAware Approximate
11:08PM 18.4302 -74.7098 145° Southeast  Level FlightAware Approximate
11:09PM 18.3240 -74.6301 145° Southeast  Level FlightAware Approximate
11:10PM 18.2177 -74.5505 145° Southeast  Level FlightAware Approximate
11:11PM 18.1114 -74.4710 145° Southeast  Level FlightAware Approximate
11:12PM 18.0050 -74.3916 145° Southeast  Level FlightAware Approximate
11:13PM 17.8986 -74.3123 145° Southeast  Level FlightAware Approximate
11:14PM 17.7921 -74.2331 145° Southeast  Level FlightAware Approximate
11:15PM 17.6856 -74.1541 145° Southeast  Level FlightAware Approximate
11:16PM 17.5791 -74.0751 145° Southeast  Level FlightAware Approximate
11:17PM 17.4725 -73.9962 145° Southeast  Level FlightAware Approximate
11:18PM 17.3659 -73.9174 145° Southeast  Level FlightAware Approximate
11:19PM 17.2593 -73.8387 145° Southeast  Level FlightAware Approximate
11:20PM 17.1527 -73.7601 145° Southeast  Level FlightAware Approximate
11:21PM 17.0460 -73.6816 145° Southeast  Level FlightAware Approximate
11:22PM 16.9393 -73.6031 145° Southeast  Level FlightAware Approximate
11:23PM 16.8325 -73.5248 145° Southeast  Level FlightAware Approximate
11:24PM 16.7258 -73.4465 145° Southeast  Level FlightAware Approximate
11:25PM 16.6190 -73.3683 145° Southeast  Level FlightAware Approximate
11:26PM 16.5121 -73.2903 145° Southeast  Level FlightAware Approximate
11:27PM 16.4053 -73.2123 145° Southeast  Level FlightAware Approximate
11:28PM 16.2983 -73.1345 145° Southeast  Level FlightAware Approximate
11:29PM 16.1914 -73.0567 145° Southeast  Level FlightAware Approximate
11:30PM 16.0844 -72.9790 145° Southeast  Level FlightAware Approximate
11:31PM 15.9774 -72.9014 145° Southeast  Level FlightAware Approximate
11:32PM 15.8704 -72.8238 145° Southeast  Level FlightAware Approximate
11:33PM 15.7634 -72.7464 145° Southeast  Level FlightAware Approximate
11:34PM 15.6563 -72.6690 145° Southeast  Level FlightAware Approximate
11:35PM 15.5492 -72.5917 145° Southeast  Level FlightAware Approximate
11:36PM 15.4421 -72.5145 145° Southeast  Level FlightAware Approximate
11:37PM 15.3349 -72.4374 145° Southeast  Level FlightAware Approximate
11:38PM 15.2277 -72.3603 145° Southeast  Level FlightAware Approximate
11:39PM 15.1205 -72.2833 145° Southeast  Level FlightAware Approximate
11:40PM 15.0133 -72.2065 145° Southeast  Level FlightAware Approximate
11:41PM 14.9060 -72.1296 145° Southeast  Level FlightAware Approximate
11:42PM 14.7987 -72.0529 145° Southeast  Level FlightAware Approximate
11:43PM 14.6914 -71.9762 145° Southeast  Level FlightAware Approximate
11:44PM 14.5841 -71.8996 145° Southeast  Level FlightAware Approximate
11:45PM 14.4767 -71.8231 145° Southeast  Level FlightAware Approximate
11:46PM 14.3693 -71.7467 145° Southeast  Level FlightAware Approximate
11:47PM 14.2619 -71.6703 145° Southeast  Level FlightAware Approximate
11:48PM 14.1547 -71.5936 145° Southeast  Level FlightAware Approximate
11:49PM 14.0476 -71.5169 145° Southeast  Level FlightAware Approximate
11:50PM 13.9404 -71.4403 145° Southeast  Level FlightAware Approximate
11:51PM 13.8332 -71.3637 145° Southeast  Level FlightAware Approximate
11:52PM 13.7260 -71.2873 145° Southeast  Level FlightAware Approximate
11:53PM 13.6187 -71.2108 145° Southeast  Level FlightAware Approximate
11:54PM 13.5115 -71.1345 145° Southeast  Level FlightAware Approximate
11:55PM 13.4042 -71.0582 145° Southeast  Level FlightAware Approximate
11:56PM 13.2969 -70.9820 145° Southeast  Level FlightAware Approximate
11:57PM 13.1896 -70.9059 145° Southeast  Level FlightAware Approximate
11:58PM 13.0822 -70.8298 145° Southeast  Level FlightAware Approximate
11:59PM 12.9749 -70.7538 145° Southeast  Level FlightAware Approximate
12:00AM 12.8675 -70.6778 145° Southeast  Level FlightAware Approximate
12:01AM 12.7600 -70.6019 145° Southeast  Level FlightAware Approximate
12:02AM 12.6526 -70.5261 145° Southeast  Level FlightAware Approximate
12:03AM 12.5451 -70.4503 145° Southeast  Level FlightAware Approximate
12:04AM 12.4376 -70.3747 146° Southeast  Level FlightAware Approximate
12:05AM 12.3297 -70.2997 146° Southeast  Level FlightAware Approximate
12:06AM 12.2218 -70.2247 146° Southeast  Level FlightAware Approximate
12:07AM 12.1139 -70.1498 146° Southeast  Level FlightAware Approximate
12:08AM 12.0059 -70.0749 146° Southeast  Level FlightAware Approximate
12:09AM 11.8979 -70.0002 146° Southeast  Level FlightAware Approximate
12:10AM 11.7899 -69.9254 146° Southeast  Level FlightAware Approximate
12:11AM 11.6819 -69.8507 146° Southeast  Level FlightAware Approximate
12:12AM 11.5739 -69.7761 146° Southeast  Level FlightAware Approximate
12:13AM 11.4658 -69.7016 146° Southeast  Level FlightAware Approximate
12:14AM 11.3577 -69.6271 146° Southeast  Level FlightAware Approximate
12:15AM 11.2497 -69.5526 146° Southeast  Level FlightAware Approximate
12:16AM 11.1415 -69.4782 146° Southeast  Level FlightAware Approximate
12:17AM 11.0334 -69.4039 146° Southeast  Level FlightAware Approximate
12:18AM 10.9253 -69.3296 146° Southeast  Level FlightAware Approximate
12:19AM 10.8171 -69.2554 146° Southeast  Level FlightAware Approximate
12:20AM 10.7089 -69.1812 146° Southeast  Level FlightAware Approximate
12:21AM 10.6007 -69.1071 146° Southeast  Level FlightAware Approximate
12:22AM 10.4925 -69.0330 146° Southeast  Level FlightAware Approximate
12:23AM 10.3843 -68.9590 146° Southeast  Level FlightAware Approximate
12:24AM 10.2760 -68.8850 146° Southeast  Level FlightAware Approximate
12:25AM 10.1678 -68.8111 146° Southeast  Level FlightAware Approximate
12:26AM 10.0595 -68.7373 146° Southeast  Level FlightAware Approximate
12:27AM 9.9512 -68.6634 146° Southeast  Level FlightAware Approximate
12:28AM 9.8428 -68.5897 146° Southeast  Level FlightAware Approximate
12:29AM 9.7345 -68.5160 146° Southeast  Level FlightAware Approximate
12:30AM 9.6262 -68.4423 146° Southeast  Level FlightAware Approximate
12:31AM 9.5178 -68.3687 146° Southeast  Level FlightAware Approximate
12:32AM 9.4094 -68.2951 146° Southeast  Level FlightAware Approximate
12:33AM 9.3010 -68.2215 146° Southeast  Level FlightAware Approximate
12:34AM 9.1926 -68.1481 146° Southeast  Level FlightAware Approximate
12:35AM 9.0842 -68.0746 146° Southeast  Level FlightAware Approximate
12:36AM 8.9757 -68.0012 146° Southeast  Level FlightAware Approximate
12:37AM 8.8673 -67.9279 146° Southeast  Level FlightAware Approximate
12:38AM 8.7590 -67.8544 146° Southeast  Level FlightAware Approximate
12:39AM 8.6505 -67.7810 146° Southeast  Level FlightAware Approximate
12:40AM 8.5421 -67.7077 146° Southeast  Level FlightAware Approximate
12:41AM 8.4337 -67.6344 146° Southeast  Level FlightAware Approximate
12:42AM 8.3253 -67.5611 146° Southeast  Level FlightAware Approximate
12:43AM 8.2168 -67.4879 146° Southeast  Level FlightAware Approximate
12:44AM 8.1083 -67.4147 146° Southeast  Level FlightAware Approximate
12:45AM 7.9999 -67.3415 146° Southeast  Level FlightAware Approximate
12:46AM 7.8914 -67.2684 146° Southeast  Level FlightAware Approximate
12:47AM 7.7829 -67.1954 146° Southeast  Level FlightAware Approximate
12:48AM 7.6744 -67.1223 146° Southeast  Level FlightAware Approximate
12:49AM 7.5658 -67.0493 146° Southeast  Level FlightAware Approximate
12:50AM 7.4573 -66.9764 146° Southeast  Level FlightAware Approximate
12:51AM 7.3487 -66.9034 146° Southeast  Level FlightAware Approximate
12:52AM 7.2402 -66.8306 146° Southeast  Level FlightAware Approximate
12:53AM 7.1316 -66.7577 146° Southeast  Level FlightAware Approximate
12:54AM 7.0230 -66.6849 146° Southeast  Level FlightAware Approximate
12:55AM 6.9144 -66.6121 146° Southeast  Level FlightAware Approximate
12:56AM 6.8058 -66.5394 146° Southeast  Level FlightAware Approximate
12:57AM 6.6972 -66.4666 146° Southeast  Level FlightAware Approximate
12:58AM 6.5886 -66.3939 146° Southeast  Level FlightAware Approximate
12:59AM 6.4799 -66.3213 146° Southeast  Level FlightAware Approximate
01:00AM 6.3713 -66.2487 146° Southeast  Level FlightAware Approximate
01:01AM 6.2626 -66.1761 146° Southeast  Level FlightAware Approximate
01:02AM 6.1539 -66.1035 146° Southeast  Level FlightAware Approximate
01:03AM 6.0452 -66.0310 146° Southeast  Level FlightAware Approximate
01:04AM 5.9366 -65.9585 146° Southeast  Level FlightAware Approximate
01:05AM 5.8279 -65.8860 146° Southeast  Level FlightAware Approximate
01:06AM 5.7192 -65.8136 146° Southeast  Level FlightAware Approximate
01:07AM 5.6104 -65.7411 146° Southeast  Level FlightAware Approximate
01:08AM 5.5017 -65.6688 146° Southeast  Level FlightAware Approximate
01:09AM 5.3930 -65.5964 146° Southeast  Level FlightAware Approximate
01:10AM 5.2842 -65.5240 146° Southeast  Level FlightAware Approximate
01:11AM 5.1755 -65.4517 146° Southeast  Level FlightAware Approximate
01:12AM 5.0667 -65.3794 146° Southeast  Level FlightAware Approximate
01:13AM 4.9579 -65.3072 146° Southeast  Level FlightAware Approximate
01:14AM 4.8492 -65.2349 147° Southeast  Level FlightAware Approximate
01:15AM 4.7404 -65.1627 147° Southeast  Level FlightAware Approximate
01:16AM 4.6316 -65.0905 147° Southeast  Level FlightAware Approximate
01:17AM 4.5228 -65.0184 147° Southeast  Level FlightAware Approximate
01:18AM 4.4140 -64.9462 147° Southeast  Level FlightAware Approximate
01:19AM 4.3052 -64.8741 147° Southeast  Level FlightAware Approximate
01:20AM 4.1963 -64.8020 147° Southeast  Level FlightAware Approximate
01:21AM 4.0875 -64.7299 147° Southeast  Level FlightAware Approximate
01:22AM 3.9787 -64.6578 147° Southeast  Level FlightAware Approximate
01:23AM 3.8698 -64.5858 147° Southeast  Level FlightAware Approximate
01:24AM 3.7610 -64.5137 147° Southeast  Level FlightAware Approximate
01:25AM 3.6521 -64.4417 147° Southeast  Level FlightAware Approximate
01:26AM 3.5433 -64.3697 147° Southeast  Level FlightAware Approximate
01:27AM 3.4344 -64.2978 147° Southeast  Level FlightAware Approximate
01:28AM 3.3255 -64.2258 147° Southeast  Level FlightAware Approximate
01:29AM 3.2167 -64.1538 147° Southeast  Level FlightAware Approximate
01:30AM 3.1078 -64.0819 147° Southeast  Level FlightAware Approximate
01:31AM 2.9989 -64.0100 147° Southeast  Level FlightAware Approximate
01:32AM 2.8900 -63.9381 147° Southeast  Level FlightAware Approximate
01:33AM 2.7811 -63.8662 147° Southeast  Level FlightAware Approximate
01:34AM 2.6722 -63.7943 147° Southeast  Level FlightAware Approximate
01:35AM 2.5633 -63.7225 147° Southeast  Level FlightAware Approximate
01:36AM 2.4544 -63.6506 147° Southeast  Level FlightAware Approximate
01:37AM 2.3455 -63.5788 147° Southeast  Level FlightAware Approximate
01:38AM 2.2366 -63.5069 147° Southeast  Level FlightAware Approximate
01:39AM 2.1277 -63.4351 147° Southeast  Level FlightAware Approximate
01:40AM 2.0188 -63.3633 147° Southeast  Level FlightAware Approximate
01:41AM 1.9098 -63.2915 147° Southeast  Level FlightAware Approximate
01:42AM 1.8009 -63.2197 147° Southeast  Level FlightAware Approximate
01:43AM 1.6920 -63.1479 147° Southeast  Level FlightAware Approximate
01:44AM 1.5831 -63.0762 147° Southeast  Level FlightAware Approximate
01:45AM 1.4741 -63.0044 147° Southeast  Level FlightAware Approximate
01:46AM 1.3652 -62.9327 147° Southeast  Level FlightAware Approximate
01:47AM 1.2562 -62.8609 147° Southeast  Level FlightAware Approximate
01:48AM 1.1473 -62.7892 147° Southeast  Level FlightAware Approximate
01:49AM 1.0383 -62.7174 147° Southeast  Level FlightAware Approximate
01:50AM 0.9294 -62.6457 147° Southeast  Level FlightAware Approximate
01:51AM 0.8205 -62.5740 147° Southeast  Level FlightAware Approximate
01:52AM 0.7115 -62.5022 147° Southeast  Level FlightAware Approximate
01:53AM 0.6026 -62.4305 147° Southeast  Level FlightAware Approximate
01:54AM 0.4936 -62.3588 147° Southeast  Level FlightAware Approximate
01:55AM 0.3846 -62.2871 147° Southeast  Level FlightAware Approximate
01:56AM 0.2757 -62.2154 147° Southeast  Level FlightAware Approximate
01:57AM 0.1667 -62.1437 147° Southeast  Level FlightAware Approximate
01:58AM 0.0578 -62.0719 147° Southeast  Level FlightAware Approximate
01:59AM -0.0512 -62.0002 147° Southeast  Level FlightAware Approximate
02:00AM -0.1601 -61.9285 147° Southeast  Level FlightAware Approximate
02:01AM -0.2691 -61.8568 147° Southeast  Level FlightAware Approximate
02:02AM -0.3780 -61.7851 147° Southeast  Level FlightAware Approximate
02:03AM -0.4870 -61.7134 147° Southeast  Level FlightAware Approximate
02:04AM -0.5959 -61.6417 147° Southeast  Level FlightAware Approximate
02:05AM -0.7049 -61.5699 147° Southeast  Level FlightAware Approximate
02:06AM -0.8138 -61.4982 147° Southeast  Level FlightAware Approximate
02:07AM -0.9227 -61.4265 147° Southeast  Level FlightAware Approximate
02:08AM -1.0317 -61.3547 147° Southeast  Level FlightAware Approximate
02:09AM -1.1406 -61.2830 147° Southeast  Level FlightAware Approximate
02:10AM -1.2496 -61.2113 147° Southeast  Level FlightAware Approximate
02:11AM -1.3600 -61.1417 148° Southeast  Level FlightAware Approximate
02:12AM -1.4677 -61.0683 144° Southeast  Level FlightAware Approximate
02:13AM -1.5795 -61.0019 153° Southeast  Level FlightAware Approximate
02:14AM -1.6830 -60.9225 142° Southeast  Level FlightAware Approximate
02:15AM -1.7898 -60.8480 148° Southeast  Level FlightAware Approximate
02:16AM -1.9013 -60.7802 150° Southeast  Level FlightAware Approximate
02:17AM -2.0126 -60.7124 144° Southeast  Level FlightAware Approximate
02:18AM -2.1192 -60.6372 146° Southeast  Level FlightAware Approximate
02:19AM -2.2277 -60.5649 146° Southeast  Level FlightAware Approximate
02:20AM -2.3363 -60.4925 146° Southeast  Level FlightAware Approximate
02:21AM -2.4448 -60.4201 146° Southeast  Level FlightAware Approximate
02:22AM -2.5541 -60.3489 148° Southeast  Level FlightAware Approximate
02:23AM -2.6642 -60.2788 148° Southeast  Level FlightAware Approximate
02:24AM -2.7754 -60.2109 146° Southeast  Level FlightAware Approximate
02:25AM -2.8808 -60.1358 135° Southeast  Level FlightAware Approximate
02:26AM -2.9890 -60.0638 153° Southeast  Level FlightAware Approximate
02:27AM -3.0167 -60.0500 153° Southeast  Level FlightAware Approximate
02:28AM -3.0386 -60.0497 153° Southeast  Level Estimated
02:29AM -3.0386 -60.0497 153° Southeast  Level Estimated
02:30AM -3.0386 -60.0497 153° Southeast  Level Estimated
02:31AM -3.0386 -60.0497 153° Southeast  Level Estimated
02:32AM -3.0386 -60.0497 153° Southeast  Level Estimated
02:33AM -3.0386 -60.0497 153° Southeast  Level Estimated
02:34AM -3.0386 -60.0497 153° Southeast  Level Estimated
02:35AM -3.0386 -60.0497 153° Southeast  Level Estimated
02:36AM -3.0386 -60.0497 153° Southeast  Level Estimated
02:37AM -3.0386 -60.0497 153° Southeast  Level Estimated
02:38AM -3.0386 -60.0497 153° Southeast  Level Estimated
02:39AM -3.0386 -60.0497 153° Southeast  Level Estimated
02:40AM -3.0386 -60.0497 153° Southeast  Level Estimated
02:41AM -3.0386 -60.0497 153° Southeast  Level Estimated
02:42AM -3.0386 -60.0497 153° Southeast  Level Estimated
02:43AM -3.0386 -60.0497 153° Southeast  Level Estimated
02:44AM -3.0386 -60.0497 153° Southeast  Level Estimated
02:45AM -3.0386 -60.0497 153° Southeast  Level Estimated